Etusivu
METAR-TAF:

METAR-TAF

Lentoasemat :

Sotilaslentoasema

Tafraoui, Algeria

Leveyspiiri: 35-32-33N, Pituuspiiri: 000-31-56W, korkeus merenpinnasta: 112 m

Tämänhetkinen sää

Tämä raportti tehtiin 32 minuuttia sitten, kello 15.00 UTC
Tuuli 12 kn pohjoisen/luoteesta
Lämpötila 25°C
Kosteus 61%
Ilmanpaine 1013 hPa
Näkyvyys: 8000 m
Muutamia pilviä 1000 ft:n korkeudessa
Hajanaisia pilviä 20000 ft:n korkeudessa

METAR: DAOL 241500Z 34012KT 8000 FEW010 SCT200 25/17 Q1013

Aika: 16:32 (15:32 UTC)


TAF: puuttuu

Säähavainnot ja -ennusteet yli 4000 lentoasemalta (METAR- ja TAF-raportit).

Käytössä olevat sääasemat on merkitty karttaan keltaisilla ja punaisilla pisteillä.

Aseta hiiri pisteen päälle nähdäksesi sääaseman nimen.

Klikkaa sitten nähdäksesi säähavainnot ja -ennusteet.

Kartan vaihtaminen: klikkaa mustalla rastilla varustettuja vihreitä pisteitä, niin voit zoomata sisään; viivalla varustettua vihreää pistettä, niin voit zoomata ulos tai vihreitä nuolia, niin pääset viereisille kartoille.


METAR-TAF: